EDHL/LBC METAR and TAF weather

Enter ICAO airport designator
Station Type Date Time Source
EDHL METAR 2022/08/16 18:20 UTC NOAA

EDHL 161820Z 20003KT 150V240 9999 FEW040 25/17 Q1009 RMK


Station Type Date Time Source
EDHL Decoded METAR 2022/08/16 18:20 UTC NOAA

Luebeck-Blankensee, Germany (EDHL) 53-49N 010-42E 15M
Aug 16, 2022 - 02:20 PM EDT / 2022.08.16 1820 UTC
Wind: from the SSW (200 degrees) at 3 MPH (3 KT) (direction variable):0
Visibility: greater than 7 mile(s):0
Sky conditions: mostly clear
Temperature: 77 F (25 C)
Dew Point: 62 F (17 C)
Relative Humidity: 61%
Pressure (altimeter): 29.80 in. Hg (1009 hPa)
ob: EDHL 161820Z 20003KT 150V240 9999 FEW040 25/17 Q1009 RMK
cycle: 18

Station Type Date Time Source
EDHL TAF 2010/02/22 14:20 UTC NOAA

METAR EDHL 221420Z 15004KT 110V180 9999 FEW039 SCT120 05/02 Q0990
RMK X

Example: see airport list